Observations for NORMAN WESTHEIMER, OK (OUN)

KOUN 201555Z AUTO 17015KT 10SM CLR 20/15 A3005 RMK AO2  
KOUN 201535Z AUTO 17013G22KT 10SM CLR 20/15 A3006 RMK AO2   
KOUN 201515Z AUTO 17011G14KT 10SM CLR 19/15 A3006 RMK AO2   
KOUN 201455Z AUTO 18010G15KT 10SM CLR 18/15 A3006 RMK AO2   
KOUN 201435Z AUTO 17008KT 10SM CLR 17/15 A3006 RMK AO2  
KOUN 201415Z AUTO 15010KT 10SM CLR 17/14 A3005 RMK AO2  
KOUN 201355Z AUTO 16008KT 10SM CLR 16/13 A3005 RMK AO2  
KOUN 201335Z AUTO 18007KT 10SM CLR 15/13 A3006 RMK AO2  
KOUN 201315Z AUTO 16007KT 10SM CLR 15/13 A3005 RMK AO2  
KOUN 201255Z AUTO 16008KT 10SM CLR 15/13 A3005 RMK AO2  
KOUN 201235Z AUTO 16008KT 10SM CLR 15/13 A3006 RMK AO2  
KOUN 201215Z AUTO 16008KT 10SM CLR 15/13 A3007 RMK AO2  
KOUN 201155Z AUTO 16008KT 10SM SCT050 15/13 A3007 RMK AO2   
KOUN 201135Z AUTO 16009KT 10SM SCT055 15/13 A3009 RMK AO2   
KOUN 201115Z AUTO 17008KT 10SM SCT055 15/12 A3008 RMK AO2   
KOUN 201055Z AUTO 16010KT 10SM SCT055 15/12 A3007 RMK AO2   
KOUN 201035Z AUTO 16010KT 10SM SCT055 15/12 A3008 RMK AO2   
KOUN 201015Z AUTO 16011KT 10SM CLR 15/12 A3007 RMK AO2  
KOUN 200955Z AUTO 16009KT 10SM CLR 15/12 A3007 RMK AO2  
KOUN 200935Z AUTO 16008KT 10SM CLR 15/12 A3008 RMK AO2  
KOUN 200915Z AUTO 16008KT 10SM CLR 15/12 A3008 RMK AO2  
KOUN 200855Z AUTO 16009KT 10SM SCT047 15/12 A3008 RMK AO2   
KOUN 200835Z AUTO 16008KT 10SM CLR 16/12 A3009 RMK AO2  
KOUN 200815Z AUTO 15009KT 10SM CLR 16/12 A3009 RMK AO2  
KOUN 200755Z AUTO 15009KT 10SM CLR 16/12 A3009 RMK AO2  
KOUN 200735Z AUTO 16009KT 10SM CLR 15/11 A3009 RMK AO2  
KOUN 200715Z AUTO 16008KT 10SM CLR 15/11 A3009 RMK AO2  
KOUN 200655Z AUTO 16008KT 10SM CLR 16/11 A3009 RMK AO2  
KOUN 200635Z AUTO 16007KT 10SM CLR 16/11 A3009 RMK AO2  
KOUN 200615Z AUTO 15010KT 10SM CLR 16/11 A3009 RMK AO2  
KOUN 200555Z AUTO 16008KT 10SM CLR 16/11 A3010 RMK AO2  
KOUN 200535Z AUTO 16009KT 10SM CLR 16/11 A3010 RMK AO2  
KOUN 200515Z AUTO 16010KT 10SM CLR 17/11 A3010 RMK AO2  
KOUN 200455Z AUTO 16009KT 10SM CLR 17/11 A3010 RMK AO2  
KOUN 200435Z AUTO 16010KT 10SM CLR 17/11 A3010 RMK AO2  
KOUN 200415Z AUTO 16008KT 10SM CLR 17/11 A3010 RMK AO2  
KOUN 200355Z AUTO 16009KT 10SM CLR 18/11 A3011 RMK AO2  
KOUN 200335Z AUTO 15012KT 10SM CLR 18/11 A3010 RMK AO2  
KOUN 200315Z AUTO 15011G17KT 10SM CLR 19/11 A3009 RMK AO2   
KOUN 200255Z AUTO 14008KT 10SM CLR 18/11 A3009 RMK AO2  
KOUN 200235Z AUTO 12006KT 10SM CLR 18/11 A3009 RMK AO2  
KOUN 200215Z AUTO 13005KT 10SM CLR 18/11 A3009 RMK AO2  
KOUN 200155Z AUTO 15009KT 10SM CLR 20/11 A3009 RMK AO2  
KOUN 200135Z AUTO 15011KT 10SM CLR 20/11 A3009 RMK AO2  
KOUN 200115Z AUTO 14009KT 10SM CLR 20/10 A3009 RMK AO2  
KOUN 200055Z AUTO 14006KT 10SM CLR 19/10 A3009 RMK AO2  
KOUN 200035Z AUTO 15007KT 10SM CLR 20/10 A3008 RMK AO2  
KOUN 200015Z AUTO 16007KT 10SM CLR 20/10 A3008 RMK AO2  
KOUN 192355Z AUTO 15007KT 10SM CLR 21/10 A3007 RMK AO2  
KOUN 192335Z AUTO 15007KT 10SM CLR 22/10 A3007 RMK AO2  
KOUN 192315Z AUTO 15008KT 10SM CLR 23/10 A3007 RMK AO2  
KOUN 192255Z AUTO 14008KT 10SM CLR 24/10 A3007 RMK AO2  
KOUN 192235Z AUTO 14007KT 10SM CLR 25/11 A3007 RMK AO2  
KOUN 192215Z AUTO 15010KT 10SM CLR 25/11 A3007 RMK AO2  
KOUN 192155Z AUTO 15009KT 10SM CLR 25/12 A3007 RMK AO2  
KOUN 192135Z AUTO 14010KT 10SM CLR 25/12 A3008 RMK AO2  
KOUN 192115Z AUTO 14009KT 10SM CLR 25/11 A3008 RMK AO2  
KOUN 192055Z AUTO 17009KT 10SM CLR 25/11 A3009 RMK AO2  
KOUN 192035Z AUTO 17010KT 10SM CLR 25/10 A3009 RMK AO2  
KOUN 192015Z AUTO 17011KT 10SM CLR 25/11 A3009 RMK AO2  
KOUN 191955Z AUTO 17011G17KT 10SM CLR 25/11 A3010 RMK AO2   
KOUN 191935Z AUTO 16011G15KT 10SM CLR 25/11 A3010 RMK AO2   
KOUN 191915Z AUTO 14005KT 10SM CLR 23/13 A3011 RMK AO2  
KOUN 191855Z AUTO 15004KT 10SM CLR 22/13 A3012 RMK AO2  
KOUN 191835Z AUTO 17008KT 10SM CLR 21/12 A3014 RMK AO2  
KOUN 191815Z AUTO 18009KT 10SM CLR 21/12 A3015 RMK AO2  
KOUN 191755Z AUTO 19012G17KT 10SM CLR 22/12 A3016 RMK AO2   
KOUN 191735Z AUTO 20014KT 10SM CLR 22/12 A3017 RMK AO2  
KOUN 191715Z AUTO 19008KT 10SM CLR 20/12 A3017 RMK AO2  
KOUN 191655Z AUTO 19007KT 10SM CLR 20/11 A3017 RMK AO2  
KOUN 191635Z AUTO 18006KT 10SM CLR 18/11 A3017 RMK AO2  
KOUN 191615Z AUTO 18007KT 10SM CLR 17/11 A3018 RMK AO2  
KOUN 191555Z AUTO 17007KT 10SM CLR 17/11 A3018 RMK AO2  
KOUN 191535Z AUTO 18006KT 10SM CLR 16/10 A3017 RMK AO2  
KOUN 191515Z AUTO 17007KT 10SM CLR 16/10 A3017 RMK AO2